Time;durP1;ratioP1;P1;durP2;ratioP2;P2;SDS_P1;SDS_P2;PMS_P1;PMS_P2;Temp;Humidity;BMP_temperature;BMP_pressure;BME280_temperature;BME280_humidity;BME280_pressure;Samples;Min_cycle;Max_cycle;Signal;HPM_P1;HPM_P2
2021/08/06 00:00:12;;;;;;;2.35;1.20;;;;;;;;;;5030483;28;20060;-56
2021/08/06 00:02:42;;;;;;;1.40;1.00;;;;;;;;;;5032785;28;20048;-57
2021/08/06 00:05:11;;;;;;;1.40;0.90;;;;;;;;;;5031386;28;20512;-56
2021/08/06 00:07:39;;;;;;;1.40;1.00;;;;;;;;;;5032437;28;20127;-56
2021/08/06 00:10:09;;;;;;;2.60;0.90;;;;;;;;;;5032322;28;20055;-56
2021/08/06 00:12:37;;;;;;;1.15;0.82;;;;;;;;;;5032680;28;20124;-56
2021/08/06 00:15:07;;;;;;;1.08;0.85;;;;;;;;;;5030657;28;20455;-57
2021/08/06 00:17:35;;;;;;;1.35;0.90;;;;;;;;;;5031911;28;20046;-57
2021/08/06 00:20:05;;;;;;;1.55;0.80;;;;;;;;;;5032509;28;20144;-57
2021/08/06 00:22:33;;;;;;;1.25;0.90;;;;;;;;;;5030190;28;20051;-57
2021/08/06 00:25:01;;;;;;;3.50;1.00;;;;;;;;;;5029713;28;20052;-56
2021/08/06 00:27:32;;;;;;;5.80;1.10;;;;;;;;;;5030936;28;20129;-58
2021/08/06 00:30:01;;;;;;;2.47;0.90;;;;;;;;;;5030641;28;20061;-58
2021/08/06 00:32:29;;;;;;;1.20;0.90;;;;;;;;;;5032614;28;20140;-58
2021/08/06 00:34:57;;;;;;;1.10;0.88;;;;;;;;;;5031076;28;20465;-57
2021/08/06 00:37:26;;;;;;;2.17;1.00;;;;;;;;;;5030782;28;20409;-57
2021/08/06 00:39:54;;;;;;;1.27;1.00;;;;;;;;;;5032505;28;20084;-57
2021/08/06 00:42:22;;;;;;;1.75;1.00;;;;;;;;;;5031029;28;20137;-56
2021/08/06 00:44:52;;;;;;;1.63;0.90;;;;;;;;;;5031621;28;20053;-56
2021/08/06 00:47:20;;;;;;;3.25;0.90;;;;;;;;;;5031183;28;20148;-56
2021/08/06 00:49:49;;;;;;;1.30;1.00;;;;;;;;;;5040276;28;20061;-57
2021/08/06 00:52:17;;;;;;;2.20;0.90;;;;;;;;;;5032232;28;20511;-57
2021/08/06 00:54:46;;;;;;;2.45;1.00;;;;;;;;;;5030129;28;20491;-57
2021/08/06 00:57:14;;;;;;;2.47;1.08;;;;;;;;;;5032007;28;20061;-57
2021/08/06 00:59:42;;;;;;;1.55;0.80;;;;;;;;;;5041356;28;20093;-57
2021/08/06 01:02:17;;;;;;;5.95;1.90;;;;;;;;;;5030334;28;20077;-57
2021/08/06 01:04:51;;;;;;;2.05;0.88;;;;;;;;;;5031244;28;20041;-58
2021/08/06 01:07:24;;;;;;;2.17;1.20;;;;;;;;;;5030159;28;20676;-57
2021/08/06 01:09:55;;;;;;;1.23;0.80;;;;;;;;;;5030903;28;20509;-57
2021/08/06 01:12:27;;;;;;;5.20;1.02;;;;;;;;;;5030823;28;20560;-56
2021/08/06 01:14:57;;;;;;;3.40;0.80;;;;;;;;;;5030838;28;20181;-57
2021/08/06 01:17:27;;;;;;;1.67;0.93;;;;;;;;;;5029542;28;20073;-56
2021/08/06 01:19:58;;;;;;;9.65;1.48;;;;;;;;;;5029834;28;20140;-56
2021/08/06 01:22:28;;;;;;;1.80;1.08;;;;;;;;;;5030541;28;20128;-57
2021/08/06 01:25:03;;;;;;;4.15;1.00;;;;;;;;;;5028907;28;20092;-57
2021/08/06 01:27:33;;;;;;;1.65;1.10;;;;;;;;;;5031127;28;20059;-57
2021/08/06 01:30:01;;;;;;;4.78;0.85;;;;;;;;;;5022809;28;20489;-57
2021/08/06 01:32:30;;;;;;;1.90;1.40;;;;;;;;;;5030625;28;20486;-58
2021/08/06 01:34:59;;;;;;;1.67;0.85;;;;;;;;;;5009469;28;20054;-58
2021/08/06 01:37:27;;;;;;;0.88;0.80;;;;;;;;;;5025845;28;20048;-57
2021/08/06 01:39:55;;;;;;;1.52;1.10;;;;;;;;;;5030283;28;20079;-58
2021/08/06 01:42:28;;;;;;;4.60;0.98;;;;;;;;;;5029645;28;20050;-58
2021/08/06 01:44:58;;;;;;;4.43;1.05;;;;;;;;;;5022382;28;20377;-56
2021/08/06 01:47:28;;;;;;;1.05;0.90;;;;;;;;;;5030596;28;20045;-57
2021/08/06 01:49:58;;;;;;;2.08;1.15;;;;;;;;;;5034882;28;20051;-58
2021/08/06 01:52:29;;;;;;;1.33;0.90;;;;;;;;;;5030752;28;20132;-57
2021/08/06 01:55:01;;;;;;;1.98;0.88;;;;;;;;;;5028169;28;20051;-57
2021/08/06 01:57:31;;;;;;;1.35;0.95;;;;;;;;;;5022337;28;20485;-57
2021/08/06 02:00:02;;;;;;;3.60;1.00;;;;;;;;;;5021930;28;21182;-57
2021/08/06 02:02:31;;;;;;;2.25;1.00;;;;;;;;;;5030258;28;20132;-56
2021/08/06 02:04:59;;;;;;;3.63;1.10;;;;;;;;;;5022930;28;20054;-58
2021/08/06 02:07:28;;;;;;;2.40;1.20;;;;;;;;;;5030731;28;20045;-58
2021/08/06 02:09:56;;;;;;;5.00;0.98;;;;;;;;;;5031608;28;20060;-57
2021/08/06 02:12:25;;;;;;;1.20;0.82;;;;;;;;;;5030416;28;20057;-57
2021/08/06 02:14:53;;;;;;;3.85;1.27;;;;;;;;;;5028597;28;20053;-58
2021/08/06 02:17:24;;;;;;;1.65;1.00;;;;;;;;;;5030531;28;20057;-58
2021/08/06 02:19:52;;;;;;;1.77;1.20;;;;;;;;;;5029837;28;20053;-57
2021/08/06 02:22:22;;;;;;;2.97;1.17;;;;;;;;;;5017665;28;20129;-57
2021/08/06 02:24:50;;;;;;;3.60;1.58;;;;;;;;;;5029152;28;20073;-57
2021/08/06 02:27:20;;;;;;;3.60;1.05;;;;;;;;;;5029828;28;20145;-58
2021/08/06 02:29:48;;;;;;;3.70;1.25;;;;;;;;;;5029245;28;20589;-58
2021/08/06 02:32:17;;;;;;;3.25;1.30;;;;;;;;;;5029465;28;20055;-57
2021/08/06 02:34:46;;;;;;;2.20;1.52;;;;;;;;;;5028523;28;20131;-57
2021/08/06 02:37:15;;;;;;;2.63;1.35;;;;;;;;;;5030001;28;20137;-56
2021/08/06 02:39:43;;;;;;;1.60;1.20;;;;;;;;;;5030848;28;20144;-56
2021/08/06 02:42:11;;;;;;;2.03;1.15;;;;;;;;;;5030154;28;20080;-57
2021/08/06 02:44:40;;;;;;;1.73;1.27;;;;;;;;;;5028228;28;20415;-57
2021/08/06 02:47:09;;;;;;;2.13;1.10;;;;;;;;;;5023394;28;20049;-56
2021/08/06 02:49:38;;;;;;;1.85;1.13;;;;;;;;;;5029801;28;20452;-56
2021/08/06 02:52:08;;;;;;;4.57;1.60;;;;;;;;;;5029509;28;20183;-57
2021/08/06 02:54:37;;;;;;;1.88;1.15;;;;;;;;;;5028489;28;20045;-56
2021/08/06 02:57:05;;;;;;;1.60;1.30;;;;;;;;;;5029025;28;20485;-56
2021/08/06 02:59:33;;;;;;;3.25;1.38;;;;;;;;;;5028728;28;20092;-57
2021/08/06 03:02:02;;;;;;;4.63;1.60;;;;;;;;;;5029031;28;20053;-56
2021/08/06 03:04:30;;;;;;;3.35;1.48;;;;;;;;;;5027758;28;20080;-56
2021/08/06 03:07:00;;;;;;;4.22;1.48;;;;;;;;;;5016279;28;20045;-56
2021/08/06 03:09:29;;;;;;;2.97;1.58;;;;;;;;;;5029775;28;20053;-56
2021/08/06 03:11:58;;;;;;;4.95;1.58;;;;;;;;;;5029370;28;20049;-57
2021/08/06 03:14:26;;;;;;;3.08;1.75;;;;;;;;;;5025316;28;20048;-57
2021/08/06 03:16:54;;;;;;;2.42;1.40;;;;;;;;;;5029607;28;20076;-57
2021/08/06 03:19:22;;;;;;;3.72;2.10;;;;;;;;;;5021425;28;20594;-57
2021/08/06 03:21:51;;;;;;;6.95;1.90;;;;;;;;;;5028666;28;20149;-58
2021/08/06 03:24:19;;;;;;;2.72;1.88;;;;;;;;;;5022838;28;20052;-57
2021/08/06 03:26:48;;;;;;;2.40;1.70;;;;;;;;;;5026963;28;20045;-57
2021/08/06 03:29:17;;;;;;;2.67;1.80;;;;;;;;;;5017690;28;20050;-56
2021/08/06 03:31:45;;;;;;;3.53;1.58;;;;;;;;;;5016849;28;20504;-56
2021/08/06 03:34:13;;;;;;;7.25;1.60;;;;;;;;;;5024913;28;20061;-57
2021/08/06 03:36:42;;;;;;;2.92;1.38;;;;;;;;;;5024294;28;20069;-56
2021/08/06 03:39:10;;;;;;;3.80;1.90;;;;;;;;;;5028111;28;20133;-57
2021/08/06 03:41:38;;;;;;;2.70;1.60;;;;;;;;;;5026525;28;20133;-57
2021/08/06 03:44:08;;;;;;;4.20;1.90;;;;;;;;;;5023503;28;20568;-57
2021/08/06 03:46:37;;;;;;;3.33;1.60;;;;;;;;;;5026611;28;20556;-57
2021/08/06 03:49:05;;;;;;;3.70;1.52;;;;;;;;;;5026408;28;20141;-57
2021/08/06 03:51:33;;;;;;;2.55;1.45;;;;;;;;;;5027323;28;20092;-58
2021/08/06 03:54:01;;;;;;;3.15;1.67;;;;;;;;;;5020762;28;20077;-57
2021/08/06 03:56:30;;;;;;;4.22;1.40;;;;;;;;;;5025406;28;20496;-57
2021/08/06 03:58:58;;;;;;;2.60;1.50;;;;;;;;;;5023829;28;20476;-56
2021/08/06 04:01:28;;;;;;;3.60;1.52;;;;;;;;;;5024051;28;20084;-56
2021/08/06 04:03:57;;;;;;;2.40;1.35;;;;;;;;;;5023599;28;20049;-56
2021/08/06 04:06:25;;;;;;;7.55;1.70;;;;;;;;;;5025892;28;20452;-57
2021/08/06 04:08:54;;;;;;;3.78;1.70;;;;;;;;;;5024947;28;20045;-57
2021/08/06 04:11:22;;;;;;;2.67;1.55;;;;;;;;;;5027355;28;20046;-57
2021/08/06 04:13:50;;;;;;;2.50;1.50;;;;;;;;;;5025950;28;20123;-57
2021/08/06 04:16:35;;;;;;;2.00;1.30;;;;;;;;;;2173136;28;10023505;-57
2021/08/06 04:19:03;;;;;;;5.18;1.40;;;;;;;;;;3639232;28;10001019;-57
2021/08/06 04:21:31;;;;;;;2.63;1.33;;;;;;;;;;5028907;28;20136;-57
2021/08/06 04:24:00;;;;;;;3.78;1.63;;;;;;;;;;5025654;28;20140;-57
2021/08/06 04:26:28;;;;;;;3.10;1.58;;;;;;;;;;5031561;28;20165;-57
2021/08/06 04:28:59;;;;;;;1.98;1.30;;;;;;;;;;5020383;28;20083;-57
2021/08/06 04:31:27;;;;;;;2.25;1.25;;;;;;;;;;5029060;28;20056;-57
2021/08/06 04:33:57;;;;;;;2.22;1.42;;;;;;;;;;5026537;28;20140;-57
2021/08/06 04:36:25;;;;;;;1.48;0.90;;;;;;;;;;5029175;28;20046;-56
2021/08/06 04:38:53;;;;;;;5.30;1.67;;;;;;;;;;5031618;28;20481;-57
2021/08/06 04:41:22;;;;;;;1.65;1.30;;;;;;;;;;5033128;28;20150;-57
2021/08/06 04:43:50;;;;;;;5.85;1.40;;;;;;;;;;5031228;28;20049;-57
2021/08/06 04:46:20;;;;;;;2.60;1.30;;;;;;;;;;5032541;28;20497;-57
2021/08/06 04:48:49;;;;;;;3.20;1.17;;;;;;;;;;5031651;28;20049;-56
2021/08/06 04:51:18;;;;;;;4.13;1.40;;;;;;;;;;5029784;28;20065;-57
2021/08/06 04:53:47;;;;;;;3.25;1.30;;;;;;;;;;5027698;28;20132;-56
2021/08/06 04:56:16;;;;;;;2.92;1.30;;;;;;;;;;5032691;28;20073;-56
2021/08/06 04:58:44;;;;;;;2.25;1.40;;;;;;;;;;5032168;28;20041;-57
2021/08/06 05:01:12;;;;;;;2.10;1.50;;;;;;;;;;5030302;28;20113;-56
2021/08/06 05:03:41;;;;;;;2.20;1.45;;;;;;;;;;5031830;28;20042;-57
2021/08/06 05:06:09;;;;;;;1.95;1.30;;;;;;;;;;5032603;28;20144;-57
2021/08/06 05:08:43;;;;;;;2.78;1.45;;;;;;;;;;5030524;28;20518;-57
2021/08/06 05:11:11;;;;;;;3.83;1.10;;;;;;;;;;5030790;28;20461;-57
2021/08/06 05:13:39;;;;;;;2.47;1.25;;;;;;;;;;5031678;28;20064;-57
2021/08/06 05:16:08;;;;;;;5.82;1.45;;;;;;;;;;5030369;28;20041;-57
2021/08/06 05:18:37;;;;;;;1.55;1.00;;;;;;;;;;5030465;28;20413;-57
2021/08/06 05:21:06;;;;;;;2.75;1.40;;;;;;;;;;5031913;28;20482;-58
2021/08/06 05:23:34;;;;;;;2.60;1.10;;;;;;;;;;5030296;28;20394;-58
2021/08/06 05:26:04;;;;;;;6.85;1.40;;;;;;;;;;5011899;28;20132;-57
2021/08/06 05:28:32;;;;;;;2.00;1.00;;;;;;;;;;5030403;28;20080;-57
2021/08/06 05:31:00;;;;;;;2.75;1.27;;;;;;;;;;5032178;28;20125;-57
2021/08/06 05:33:29;;;;;;;2.00;1.10;;;;;;;;;;5028775;28;20077;-57
2021/08/06 05:35:57;;;;;;;3.63;1.40;;;;;;;;;;5021941;28;20080;-56
2021/08/06 05:38:25;;;;;;;1.90;1.45;;;;;;;;;;5027275;28;20041;-56
2021/08/06 05:40:54;;;;;;;2.97;1.50;;;;;;;;;;5028223;28;20061;-57
2021/08/06 05:43:23;;;;;;;3.42;1.35;;;;;;;;;;5020885;28;20056;-57
2021/08/06 05:45:52;;;;;;;1.67;1.33;;;;;;;;;;5025591;28;20136;-57
2021/08/06 05:48:20;;;;;;;3.35;1.58;;;;;;;;;;5008386;28;20133;-57
2021/08/06 05:50:48;;;;;;;3.03;1.70;;;;;;;;;;5039060;28;20514;-58
2021/08/06 05:53:17;;;;;;;2.45;1.50;;;;;;;;;;5021863;28;20053;-58
2021/08/06 05:55:45;;;;;;;2.75;1.40;;;;;;;;;;5014673;28;20045;-57
2021/08/06 05:58:13;;;;;;;2.15;1.48;;;;;;;;;;5019169;28;20052;-56
2021/08/06 06:00:43;;;;;;;2.40;1.10;;;;;;;;;;5022366;28;20140;-58
2021/08/06 06:03:14;;;;;;;1.88;1.30;;;;;;;;;;5012915;28;20052;-57
2021/08/06 06:05:43;;;;;;;3.30;1.40;;;;;;;;;;5013835;28;20045;-58
2021/08/06 06:08:11;;;;;;;1.85;1.30;;;;;;;;;;5024107;28;20162;-56
2021/08/06 06:10:40;;;;;;;4.05;1.70;;;;;;;;;;5008512;28;20117;-58
2021/08/06 06:13:08;;;;;;;5.15;1.50;;;;;;;;;;5019415;28;20493;-56
2021/08/06 06:15:36;;;;;;;1.98;1.48;;;;;;;;;;5022284;28;20168;-57
2021/08/06 06:18:06;;;;;;;2.15;1.27;;;;;;;;;;5020358;28;20054;-57
2021/08/06 06:20:35;;;;;;;2.75;1.58;;;;;;;;;;5015380;28;20140;-57
2021/08/06 06:23:04;;;;;;;2.92;1.30;;;;;;;;;;5020555;28;20497;-58
2021/08/06 06:25:32;;;;;;;4.55;1.40;;;;;;;;;;5018519;28;20545;-57
2021/08/06 06:28:03;;;;;;;5.30;1.38;;;;;;;;;;5021316;28;20446;-57
2021/08/06 06:30:32;;;;;;;1.88;1.27;;;;;;;;;;5019591;28;20049;-57
2021/08/06 06:33:03;;;;;;;2.28;1.40;;;;;;;;;;5022553;28;20171;-57
2021/08/06 06:35:33;;;;;;;6.70;1.60;;;;;;;;;;5023412;28;20213;-57
2021/08/06 06:38:02;;;;;;;3.58;1.10;;;;;;;;;;5022302;28;20057;-57
2021/08/06 06:40:31;;;;;;;2.88;1.42;;;;;;;;;;5018728;28;20136;-57
2021/08/06 06:42:59;;;;;;;2.55;1.60;;;;;;;;;;5019272;28;20557;-57
2021/08/06 06:45:28;;;;;;;3.22;1.45;;;;;;;;;;5018199;28;20394;-57
2021/08/06 06:47:57;;;;;;;2.40;1.33;;;;;;;;;;5023740;28;20060;-57
2021/08/06 06:50:27;;;;;;;2.13;1.73;;;;;;;;;;5022444;28;20064;-58
2021/08/06 06:52:57;;;;;;;4.25;1.40;;;;;;;;;;5018704;28;20519;-56
2021/08/06 06:55:25;;;;;;;2.22;1.35;;;;;;;;;;5016926;28;20056;-57
2021/08/06 06:57:56;;;;;;;5.30;1.75;;;;;;;;;;5022482;28;20076;-57
2021/08/06 07:00:25;;;;;;;14.90;1.58;;;;;;;;;;5019778;28;20088;-56
2021/08/06 07:02:54;;;;;;;2.25;1.30;;;;;;;;;;5020232;28;20075;-57
2021/08/06 07:05:22;;;;;;;3.28;1.10;;;;;;;;;;5004807;28;20069;-58
2021/08/06 07:07:51;;;;;;;2.63;1.30;;;;;;;;;;5017599;28;20042;-58
2021/08/06 07:10:21;;;;;;;1.83;1.08;;;;;;;;;;5021162;28;20806;-59
2021/08/06 07:12:50;;;;;;;3.42;1.33;;;;;;;;;;5020059;28;20056;-57
2021/08/06 07:15:19;;;;;;;2.17;1.25;;;;;;;;;;5015467;28;20474;-56
2021/08/06 07:17:48;;;;;;;2.42;1.48;;;;;;;;;;5024478;28;20053;-58
2021/08/06 07:20:18;;;;;;;2.65;1.38;;;;;;;;;;5005142;28;20042;-57
2021/08/06 07:22:47;;;;;;;6.43;1.40;;;;;;;;;;5016474;28;20057;-57
2021/08/06 07:25:17;;;;;;;4.25;1.50;;;;;;;;;;5014319;28;20140;-57
2021/08/06 07:27:47;;;;;;;2.75;1.40;;;;;;;;;;5021153;28;20095;-58
2021/08/06 07:30:17;;;;;;;1.20;1.10;;;;;;;;;;5017799;28;20049;-56
2021/08/06 07:32:45;;;;;;;2.50;1.40;;;;;;;;;;5026767;28;20045;-57
2021/08/06 07:35:14;;;;;;;3.13;1.70;;;;;;;;;;5015273;28;20144;-57
2021/08/06 07:37:42;;;;;;;3.45;1.40;;;;;;;;;;5019710;28;20077;-57
2021/08/06 07:40:13;;;;;;;2.47;1.20;;;;;;;;;;5017269;28;20088;-57
2021/08/06 07:42:41;;;;;;;2.90;1.40;;;;;;;;;;5022471;28;20092;-57
2021/08/06 07:45:12;;;;;;;5.20;1.50;;;;;;;;;;5019784;28;20057;-57
2021/08/06 07:47:40;;;;;;;3.67;1.60;;;;;;;;;;5011629;28;20116;-57
2021/08/06 07:50:09;;;;;;;3.33;1.60;;;;;;;;;;5020633;28;20136;-58
2021/08/06 07:52:38;;;;;;;4.15;2.03;;;;;;;;;;5022995;28;20238;-57
2021/08/06 07:55:07;;;;;;;3.88;1.73;;;;;;;;;;5022401;28;20137;-57
2021/08/06 07:57:35;;;;;;;4.63;1.80;;;;;;;;;;5018021;28;20125;-57
2021/08/06 08:00:04;;;;;;;3.30;1.95;;;;;;;;;;5019136;28;20107;-57
2021/08/06 08:02:36;;;;;;;2.65;1.50;;;;;;;;;;5018653;28;20085;-57
2021/08/06 08:05:05;;;;;;;4.00;1.83;;;;;;;;;;5021712;28;20065;-57
2021/08/06 08:07:34;;;;;;;3.17;1.80;;;;;;;;;;5007471;28;20046;-57
2021/08/06 08:10:02;;;;;;;3.10;1.73;;;;;;;;;;5022880;28;20068;-56
2021/08/06 08:12:31;;;;;;;2.15;1.65;;;;;;;;;;5023082;28;20599;-58
2021/08/06 08:14:59;;;;;;;4.68;2.00;;;;;;;;;;5022470;28;20496;-58
2021/08/06 08:17:28;;;;;;;3.40;2.20;;;;;;;;;;5021910;28;20041;-57
2021/08/06 08:19:57;;;;;;;2.55;1.60;;;;;;;;;;5015780;28;20046;-57
2021/08/06 08:22:26;;;;;;;4.88;1.65;;;;;;;;;;5017899;28;20053;-57
2021/08/06 08:24:54;;;;;;;3.03;1.40;;;;;;;;;;5020217;28;20464;-57
2021/08/06 08:27:28;;;;;;;3.42;1.58;;;;;;;;;;5023351;28;20049;-57
2021/08/06 08:29:57;;;;;;;2.88;1.55;;;;;;;;;;5015923;28;20085;-57
2021/08/06 08:32:25;;;;;;;8.27;1.85;;;;;;;;;;5017034;28;20099;-57
2021/08/06 08:34:53;;;;;;;3.20;1.45;;;;;;;;;;5018513;28;20467;-57
2021/08/06 08:37:23;;;;;;;3.60;1.95;;;;;;;;;;5016554;28;20053;-56
2021/08/06 08:39:52;;;;;;;3.05;1.85;;;;;;;;;;5020428;28;20378;-57
2021/08/06 08:42:21;;;;;;;2.35;1.73;;;;;;;;;;5022710;28;20099;-56
2021/08/06 08:44:49;;;;;;;2.65;2.00;;;;;;;;;;5026361;28;20080;-56
2021/08/06 08:47:21;;;;;;;2.90;1.90;;;;;;;;;;5026204;28;20214;-56
2021/08/06 08:49:50;;;;;;;3.13;1.80;;;;;;;;;;5017105;28;20502;-58
2021/08/06 08:52:19;;;;;;;2.40;1.40;;;;;;;;;;5020446;28;20080;-58
2021/08/06 08:54:49;;;;;;;3.53;1.83;;;;;;;;;;5021732;28;20108;-58
2021/08/06 08:57:19;;;;;;;3.60;1.70;;;;;;;;;;5022716;28;20088;-58
2021/08/06 08:59:48;;;;;;;2.28;1.60;;;;;;;;;;5016463;28;20111;-56
2021/08/06 09:02:16;;;;;;;4.47;1.58;;;;;;;;;;5018626;28;20819;-57
2021/08/06 09:04:46;;;;;;;5.53;1.80;;;;;;;;;;5020077;28;20049;-58
2021/08/06 09:07:29;;;;;;;7.53;1.95;;;;;;;;;;5033032;28;20136;-57
2021/08/06 09:10:12;;;;;;;2.15;1.70;;;;;;;;;;5011779;28;20062;-57
2021/08/06 09:12:47;;;;;;;3.92;1.60;;;;;;;;;;5015521;28;20045;-57
2021/08/06 09:15:16;;;;;;;3.38;1.60;;;;;;;;;;5010874;28;20387;-58
2021/08/06 09:17:44;;;;;;;1.73;1.30;;;;;;;;;;5018451;28;20057;-57
2021/08/06 09:20:13;;;;;;;1.70;1.33;;;;;;;;;;5023369;28;20046;-58
2021/08/06 09:22:42;;;;;;;2.17;1.30;;;;;;;;;;5024182;28;20137;-56
2021/08/06 09:25:14;;;;;;;3.13;1.17;;;;;;;;;;5025124;28;20072;-57
2021/08/06 09:27:43;;;;;;;3.67;1.50;;;;;;;;;;5023989;28;20056;-56
2021/08/06 09:30:13;;;;;;;3.63;1.48;;;;;;;;;;5021138;28;20046;-57
2021/08/06 09:32:46;;;;;;;1.77;1.33;;;;;;;;;;5020105;28;20042;-57
2021/08/06 09:35:15;;;;;;;3.30;1.17;;;;;;;;;;5023541;28;20052;-57
2021/08/06 09:37:44;;;;;;;1.88;1.08;;;;;;;;;;5021573;28;20591;-56
2021/08/06 09:40:16;;;;;;;3.33;1.20;;;;;;;;;;5022376;28;20354;-57
2021/08/06 09:42:48;;;;;;;1.90;1.08;;;;;;;;;;5015406;28;20044;-56
2021/08/06 09:45:17;;;;;;;1.52;1.10;;;;;;;;;;5023315;28;20128;-57
2021/08/06 09:47:46;;;;;;;1.85;1.30;;;;;;;;;;5023585;28;20127;-57
2021/08/06 09:50:17;;;;;;;2.88;1.27;;;;;;;;;;5019073;28;20127;-57
2021/08/06 09:52:46;;;;;;;2.25;1.42;;;;;;;;;;5016547;28;20126;-57
2021/08/06 09:55:21;;;;;;;2.38;1.67;;;;;;;;;;5013239;28;20054;-58
2021/08/06 09:57:51;;;;;;;2.92;1.30;;;;;;;;;;5010639;28;20113;-58
2021/08/06 10:00:20;;;;;;;2.05;1.30;;;;;;;;;;5022096;28;20092;-58
2021/08/06 10:02:50;;;;;;;4.38;1.17;;;;;;;;;;5006662;28;20147;-57
2021/08/06 10:05:20;;;;;;;2.50;1.25;;;;;;;;;;5022691;28;20632;-57
2021/08/06 10:07:50;;;;;;;4.28;1.42;;;;;;;;;;5019342;28;20068;-57
2021/08/06 10:10:19;;;;;;;2.63;1.35;;;;;;;;;;5019535;28;20056;-57
2021/08/06 10:12:49;;;;;;;3.97;1.35;;;;;;;;;;5013077;28;20114;-58
2021/08/06 10:15:20;;;;;;;1.77;1.30;;;;;;;;;;5015271;28;20121;-63
2021/08/06 10:17:49;;;;;;;4.63;1.30;;;;;;;;;;5009187;28;20490;-56
2021/08/06 10:20:20;;;;;;;3.25;1.20;;;;;;;;;;5022013;28;20485;-58
2021/08/06 10:22:48;;;;;;;5.15;1.27;;;;;;;;;;5025524;28;20051;-57
2021/08/06 10:25:19;;;;;;;4.53;1.40;;;;;;;;;;5020611;28;20064;-57
2021/08/06 10:27:50;;;;;;;6.20;1.65;;;;;;;;;;5021559;28;20049;-57
2021/08/06 10:30:23;;;;;;;2.22;1.30;;;;;;;;;;5021475;28;20049;-57
2021/08/06 10:33:08;;;;;;;4.43;1.75;;;;;;;;;;5020784;28;20473;-57
2021/08/06 10:35:46;;;;;;;3.47;1.00;;;;;;;;;;5027224;28;20077;-57
2021/08/06 10:38:16;;;;;;;2.05;1.13;;;;;;;;;;5028180;28;20038;-57
2021/08/06 10:41:03;;;;;;;2.08;1.20;;;;;;;;;;5029273;28;20109;-57
2021/08/06 10:43:40;;;;;;;2.00;1.17;;;;;;;;;;5026940;28;20053;-57
2021/08/06 10:46:10;;;;;;;3.92;1.00;;;;;;;;;;5027579;28;20574;-57
2021/08/06 10:48:40;;;;;;;3.92;1.10;;;;;;;;;;5026039;28;20050;-57
2021/08/06 10:51:18;;;;;;;1.17;0.98;;;;;;;;;;5030236;28;20286;-57
2021/08/06 10:53:48;;;;;;;2.85;1.10;;;;;;;;;;5027816;28;20127;-57
2021/08/06 10:56:27;;;;;;;1.67;1.00;;;;;;;;;;5030044;28;20049;-57
2021/08/06 10:58:58;;;;;;;1.45;1.00;;;;;;;;;;5025336;28;20128;-57
2021/08/06 11:01:36;;;;;;;2.92;1.10;;;;;;;;;;5028207;28;20100;-57
2021/08/06 11:04:05;;;;;;;3.33;1.15;;;;;;;;;;5027801;28;20045;-57
2021/08/06 11:06:34;;;;;;;1.83;1.00;;;;;;;;;;5027151;28;20042;-57
2021/08/06 11:09:03;;;;;;;1.92;1.08;;;;;;;;;;5026590;28;20049;-57
2021/08/06 11:11:45;;;;;;;3.60;1.08;;;;;;;;;;5027632;28;20361;-58
2021/08/06 11:14:16;;;;;;;1.85;0.90;;;;;;;;;;5026035;28;20451;-58
2021/08/06 11:17:01;;;;;;;3.83;1.05;;;;;;;;;;5030290;28;20058;-61
2021/08/06 11:19:30;;;;;;;3.17;1.42;;;;;;;;;;5019545;28;20103;-58
2021/08/06 11:21:59;;;;;;;1.67;1.05;;;;;;;;;;5024812;28;20450;-59
2021/08/06 11:24:28;;;;;;;2.53;0.90;;;;;;;;;;5020904;28;20129;-59
2021/08/06 11:26:58;;;;;;;2.35;0.93;;;;;;;;;;5012489;28;20069;-58
2021/08/06 11:29:28;;;;;;;1.60;0.98;;;;;;;;;;5026417;28;20054;-58
2021/08/06 11:32:01;;;;;;;5.25;1.30;;;;;;;;;;5023746;28;20041;-58
2021/08/06 11:34:30;;;;;;;3.03;1.27;;;;;;;;;;5020419;28;20048;-60
2021/08/06 11:37:01;;;;;;;1.67;1.00;;;;;;;;;;5028110;28;20089;-59
2021/08/06 11:39:30;;;;;;;4.10;1.27;;;;;;;;;;5027523;28;20502;-58
2021/08/06 11:41:58;;;;;;;3.08;1.30;;;;;;;;;;5025134;28;20151;-59
2021/08/06 11:44:26;;;;;;;1.50;1.13;;;;;;;;;;5020272;28;20124;-58
2021/08/06 11:46:56;;;;;;;1.35;0.95;;;;;;;;;;5018058;28;20054;-58
2021/08/06 11:49:24;;;;;;;1.65;1.00;;;;;;;;;;5023484;28;20154;-59
2021/08/06 11:51:53;;;;;;;1.60;1.10;;;;;;;;;;5017708;28;20053;-58
2021/08/06 11:54:23;;;;;;;2.60;1.10;;;;;;;;;;5016771;28;20141;-58
2021/08/06 11:56:59;;;;;;;2.25;0.98;;;;;;;;;;5009794;28;20054;-58
2021/08/06 11:59:27;;;;;;;1.60;1.10;;;;;;;;;;5023656;28;20084;-57
2021/08/06 12:02:15;;;;;;;4.30;1.20;;;;;;;;;;5023198;28;20064;-58
2021/08/06 12:04:45;;;;;;;1.85;1.20;;;;;;;;;;5026463;28;20049;-59
2021/08/06 12:07:13;;;;;;;2.03;1.30;;;;;;;;;;5022800;28;20090;-57
2021/08/06 12:09:46;;;;;;;2.38;1.17;;;;;;;;;;5022232;28;20100;-58
2021/08/06 12:12:15;;;;;;;4.07;1.10;;;;;;;;;;5023479;28;20054;-58
2021/08/06 12:14:44;;;;;;;1.30;1.00;;;;;;;;;;5021508;28;20457;-58
2021/08/06 12:17:19;;;;;;;2.70;1.10;;;;;;;;;;5016814;28;20129;-58
2021/08/06 12:19:52;;;;;;;3.30;1.27;;;;;;;;;;5017202;28;20045;-58
2021/08/06 12:22:20;;;;;;;1.20;1.00;;;;;;;;;;5018460;28;20037;-58
2021/08/06 12:24:49;;;;;;;1.40;0.90;;;;;;;;;;5020136;28;20046;-59
2021/08/06 12:27:26;;;;;;;1.83;1.00;;;;;;;;;;5013564;28;20613;-58
2021/08/06 12:29:54;;;;;;;2.72;1.10;;;;;;;;;;5016816;28;20053;-59
2021/08/06 12:32:32;;;;;;;1.85;1.20;;;;;;;;;;5016189;28;20132;-59
2021/08/06 12:35:02;;;;;;;2.60;1.05;;;;;;;;;;5009115;28;20049;-59
2021/08/06 12:37:33;;;;;;;1.85;1.00;;;;;;;;;;5017858;28;20080;-58
2021/08/06 12:40:02;;;;;;;2.28;1.00;;;;;;;;;;5008998;28;20061;-59
2021/08/06 12:42:32;;;;;;;1.75;1.00;;;;;;;;;;5014906;28;20049;-58
2021/08/06 12:45:02;;;;;;;5.95;1.08;;;;;;;;;;5019404;28;20053;-59
2021/08/06 12:47:41;;;;;;;1.33;1.00;;;;;;;;;;5013250;28;20101;-58
2021/08/06 12:50:12;;;;;;;3.50;1.30;;;;;;;;;;5013949;28;20049;-57
2021/08/06 12:52:42;;;;;;;4.20;1.20;;;;;;;;;;5021593;28;20309;-58
2021/08/06 12:55:12;;;;;;;2.97;1.08;;;;;;;;;;5019970;28;20492;-58
2021/08/06 12:57:42;;;;;;;3.67;1.13;;;;;;;;;;5007132;28;20054;-58
2021/08/06 13:00:15;;;;;;;1.75;1.00;;;;;;;;;;5017336;28;20487;-57
2021/08/06 13:02:43;;;;;;;2.35;1.13;;;;;;;;;;5015640;28;20109;-59
2021/08/06 13:05:13;;;;;;;3.15;1.23;;;;;;;;;;5017544;28;20168;-58
2021/08/06 13:07:42;;;;;;;3.63;1.05;;;;;;;;;;5023068;28;20049;-57
2021/08/06 13:10:24;;;;;;;2.60;0.93;;;;;;;;;;5019523;28;20045;-58
2021/08/06 13:12:53;;;;;;;1.33;1.10;;;;;;;;;;5022904;28;20061;-58
2021/08/06 13:15:22;;;;;;;2.97;1.48;;;;;;;;;;5024106;28;20120;-58
2021/08/06 13:17:50;;;;;;;2.75;1.00;;;;;;;;;;5017675;28;20077;-57
2021/08/06 13:20:21;;;;;;;4.60;1.20;;;;;;;;;;5017104;28;20156;-58
2021/08/06 13:22:49;;;;;;;2.78;0.90;;;;;;;;;;5020368;28;20077;-58
2021/08/06 13:25:19;;;;;;;3.00;1.00;;;;;;;;;;5020560;28;20527;-59
2021/08/06 13:27:48;;;;;;;2.45;1.17;;;;;;;;;;5019132;28;20045;-57
2021/08/06 13:30:17;;;;;;;3.08;1.00;;;;;;;;;;5020353;28;20046;-58
2021/08/06 13:32:48;;;;;;;3.42;1.20;;;;;;;;;;5022971;28;20052;-58
2021/08/06 13:35:17;;;;;;;3.22;1.02;;;;;;;;;;5019268;28;20129;-57
2021/08/06 13:37:47;;;;;;;3.33;1.10;;;;;;;;;;5026129;28;20100;-59
2021/08/06 13:40:18;;;;;;;3.88;1.30;;;;;;;;;;5024782;28;20042;-59
2021/08/06 13:42:47;;;;;;;2.53;1.10;;;;;;;;;;5019750;28;20415;-58
2021/08/06 13:45:15;;;;;;;2.83;1.20;;;;;;;;;;5020610;28;20136;-60
2021/08/06 13:47:44;;;;;;;2.15;1.20;;;;;;;;;;5022915;28;20583;-58
2021/08/06 13:50:13;;;;;;;2.75;1.27;;;;;;;;;;5018092;28;20580;-58
2021/08/06 13:52:42;;;;;;;3.22;1.02;;;;;;;;;;5024100;28;20053;-58
2021/08/06 13:55:12;;;;;;;4.28;1.20;;;;;;;;;;5024504;28;20637;-58
2021/08/06 13:57:41;;;;;;;3.35;1.23;;;;;;;;;;5024839;28;20171;-58
2021/08/06 14:00:10;;;;;;;1.25;1.00;;;;;;;;;;5018424;28;20168;-58
2021/08/06 14:02:39;;;;;;;2.78;1.10;;;;;;;;;;5016775;28;20050;-58
2021/08/06 14:05:08;;;;;;;2.80;1.20;;;;;;;;;;5019099;28;20152;-58
2021/08/06 14:07:36;;;;;;;3.60;0.90;;;;;;;;;;5021257;28;20501;-59
2021/08/06 14:10:05;;;;;;;2.28;0.80;;;;;;;;;;5018358;28;20133;-58
2021/08/06 14:12:36;;;;;;;2.15;0.90;;;;;;;;;;5018449;28;20045;-58
2021/08/06 14:15:05;;;;;;;4.43;1.25;;;;;;;;;;5019613;28;20076;-58
2021/08/06 14:17:33;;;;;;;3.55;1.00;;;;;;;;;;5022306;28;20060;-58
2021/08/06 14:20:02;;;;;;;2.47;1.08;;;;;;;;;;5013904;28;20049;-58
2021/08/06 14:22:30;;;;;;;1.90;1.10;;;;;;;;;;5019687;28;20060;-58
2021/08/06 14:24:58;;;;;;;3.58;1.20;;;;;;;;;;5011160;28;20049;-58
2021/08/06 14:27:26;;;;;;;1.90;0.75;;;;;;;;;;5019670;28;20046;-58
2021/08/06 14:29:56;;;;;;;2.95;1.00;;;;;;;;;;5023105;28;20049;-58
2021/08/06 14:32:24;;;;;;;2.25;1.05;;;;;;;;;;5022103;28;20041;-58
2021/08/06 14:34:53;;;;;;;3.47;1.00;;;;;;;;;;5020530;28;20067;-58
2021/08/06 14:37:21;;;;;;;1.65;1.00;;;;;;;;;;5021565;28;20132;-58
2021/08/06 14:39:49;;;;;;;2.38;1.27;;;;;;;;;;5024957;28;20072;-58
2021/08/06 14:42:18;;;;;;;2.85;0.90;;;;;;;;;;5027609;28;20662;-58
2021/08/06 14:45:02;;;;;;;2.25;0.90;;;;;;;;;;5023191;28;20125;-58
2021/08/06 14:47:31;;;;;;;4.35;1.17;;;;;;;;;;5023532;28;20128;-58
2021/08/06 14:49:59;;;;;;;3.33;1.20;;;;;;;;;;5023709;28;20053;-58
2021/08/06 14:52:28;;;;;;;5.22;1.20;;;;;;;;;;5024539;28;20125;-59
2021/08/06 14:54:56;;;;;;;3.05;1.00;;;;;;;;;;5021320;28;20079;-58
2021/08/06 14:57:25;;;;;;;2.35;1.13;;;;;;;;;;5026087;28;20142;-58